sensor_id;sensor_type;location;lat;lon;timestamp;temperature;humidity
52849;DHT22;38714;53.180;5.812;2023-06-14T00:00:38;18.20;81.20
52849;DHT22;38714;53.180;5.812;2023-06-14T00:03:07;18.10;81.20
52849;DHT22;38714;53.180;5.812;2023-06-14T00:05:37;18.10;81.20
52849;DHT22;38714;53.180;5.812;2023-06-14T00:08:09;18.10;81.10
52849;DHT22;38714;53.180;5.812;2023-06-14T00:10:35;18.10;81.30
52849;DHT22;38714;53.180;5.812;2023-06-14T00:13:05;18.00;81.30
52849;DHT22;38714;53.180;5.812;2023-06-14T00:15:34;18.00;81.30
52849;DHT22;38714;53.180;5.812;2023-06-14T00:18:00;18.00;80.90
52849;DHT22;38714;53.180;5.812;2023-06-14T00:20:30;17.90;81.50
52849;DHT22;38714;53.180;5.812;2023-06-14T00:22:58;17.90;81.50
52849;DHT22;38714;53.180;5.812;2023-06-14T00:25:24;17.90;81.60
52849;DHT22;38714;53.180;5.812;2023-06-14T00:27:54;17.80;81.70
52849;DHT22;38714;53.180;5.812;2023-06-14T00:30:20;17.80;81.70
52849;DHT22;38714;53.180;5.812;2023-06-14T00:32:46;17.70;81.70
52849;DHT22;38714;53.180;5.812;2023-06-14T00:35:12;17.70;82.00
52849;DHT22;38714;53.180;5.812;2023-06-14T00:37:38;17.70;82.10
52849;DHT22;38714;53.180;5.812;2023-06-14T00:40:05;17.70;82.30
52849;DHT22;38714;53.180;5.812;2023-06-14T00:42:31;17.60;82.30
52849;DHT22;38714;53.180;5.812;2023-06-14T00:44:56;17.60;82.50
52849;DHT22;38714;53.180;5.812;2023-06-14T00:47:22;17.60;82.50
52849;DHT22;38714;53.180;5.812;2023-06-14T00:49:49;17.60;82.60
52849;DHT22;38714;53.180;5.812;2023-06-14T00:52:16;17.50;82.70
52849;DHT22;38714;53.180;5.812;2023-06-14T00:54:43;17.50;83.00
52849;DHT22;38714;53.180;5.812;2023-06-14T00:57:09;17.40;83.00
52849;DHT22;38714;53.180;5.812;2023-06-14T00:59:47;17.40;83.20
52849;DHT22;38714;53.180;5.812;2023-06-14T01:02:14;17.40;83.30
52849;DHT22;38714;53.180;5.812;2023-06-14T01:04:45;17.40;83.40
52849;DHT22;38714;53.180;5.812;2023-06-14T01:10:28;17.30;84.10
52849;DHT22;38714;53.180;5.812;2023-06-14T01:15:45;17.20;84.10
52849;DHT22;38714;53.180;5.812;2023-06-14T01:18:12;17.20;84.20
52849;DHT22;38714;53.180;5.812;2023-06-14T01:20:43;17.10;84.20
52849;DHT22;38714;53.180;5.812;2023-06-14T01:23:20;17.10;84.40
52849;DHT22;38714;53.180;5.812;2023-06-14T01:25:46;17.10;84.80
52849;DHT22;38714;53.180;5.812;2023-06-14T01:28:14;17.00;84.70
52849;DHT22;38714;53.180;5.812;2023-06-14T01:30:43;17.00;84.80
52849;DHT22;38714;53.180;5.812;2023-06-14T01:33:14;17.00;85.00
52849;DHT22;38714;53.180;5.812;2023-06-14T01:35:51;16.90;85.10
52849;DHT22;38714;53.180;5.812;2023-06-14T01:38:22;16.90;86.00
52849;DHT22;38714;53.180;5.812;2023-06-14T01:40:48;16.90;85.70
52849;DHT22;38714;53.180;5.812;2023-06-14T01:43:16;16.90;85.60
52849;DHT22;38714;53.180;5.812;2023-06-14T01:45:42;16.80;85.60
52849;DHT22;38714;53.180;5.812;2023-06-14T01:48:09;16.80;85.70
52849;DHT22;38714;53.180;5.812;2023-06-14T01:50:35;16.80;86.60
52849;DHT22;38714;53.180;5.812;2023-06-14T01:53:00;16.80;86.00
52849;DHT22;38714;53.180;5.812;2023-06-14T01:55:26;16.70;86.10
52849;DHT22;38714;53.180;5.812;2023-06-14T01:57:53;16.70;86.20
52849;DHT22;38714;53.180;5.812;2023-06-14T02:00:19;16.70;86.40
52849;DHT22;38714;53.180;5.812;2023-06-14T02:02:45;16.70;86.60
52849;DHT22;38714;53.180;5.812;2023-06-14T02:05:14;16.60;86.70
52849;DHT22;38714;53.180;5.812;2023-06-14T02:07:44;16.60;86.90
52849;DHT22;38714;53.180;5.812;2023-06-14T02:10:10;16.60;87.00
52849;DHT22;38714;53.180;5.812;2023-06-14T02:12:35;16.60;87.20
52849;DHT22;38714;53.180;5.812;2023-06-14T02:15:01;16.50;87.30
52849;DHT22;38714;53.180;5.812;2023-06-14T02:17:26;16.50;87.40
52849;DHT22;38714;53.180;5.812;2023-06-14T02:19:52;16.50;87.60
52849;DHT22;38714;53.180;5.812;2023-06-14T02:22:17;16.40;87.70
52849;DHT22;38714;53.180;5.812;2023-06-14T02:24:43;16.40;87.90
52849;DHT22;38714;53.180;5.812;2023-06-14T02:27:09;16.40;88.10
52849;DHT22;38714;53.180;5.812;2023-06-14T02:29:36;16.30;88.20
52849;DHT22;38714;53.180;5.812;2023-06-14T02:32:02;16.30;88.50
52849;DHT22;38714;53.180;5.812;2023-06-14T02:34:28;16.30;88.50
52849;DHT22;38714;53.180;5.812;2023-06-14T02:36:54;16.30;88.60
52849;DHT22;38714;53.180;5.812;2023-06-14T02:39:20;16.20;88.80
52849;DHT22;38714;53.180;5.812;2023-06-14T02:41:49;16.20;88.80
52849;DHT22;38714;53.180;5.812;2023-06-14T02:44:17;16.20;88.80
52849;DHT22;38714;53.180;5.812;2023-06-14T02:46:43;16.20;88.90
52849;DHT22;38714;53.180;5.812;2023-06-14T02:49:09;16.20;89.20
52849;DHT22;38714;53.180;5.812;2023-06-14T02:51:35;16.10;89.30
52849;DHT22;38714;53.180;5.812;2023-06-14T02:54:00;16.10;89.40
52849;DHT22;38714;53.180;5.812;2023-06-14T02:56:26;16.10;89.80
52849;DHT22;38714;53.180;5.812;2023-06-14T02:58:53;16.10;89.90
52849;DHT22;38714;53.180;5.812;2023-06-14T03:01:18;16.00;89.80
52849;DHT22;38714;53.180;5.812;2023-06-14T03:03:46;16.00;90.00
52849;DHT22;38714;53.180;5.812;2023-06-14T03:06:11;16.00;90.10
52849;DHT22;38714;53.180;5.812;2023-06-14T03:08:39;16.00;90.30
52849;DHT22;38714;53.180;5.812;2023-06-14T03:11:07;15.90;90.10
52849;DHT22;38714;53.180;5.812;2023-06-14T03:13:34;15.90;90.30
52849;DHT22;38714;53.180;5.812;2023-06-14T03:15:59;15.90;90.30
52849;DHT22;38714;53.180;5.812;2023-06-14T03:18:29;15.90;90.60
52849;DHT22;38714;53.180;5.812;2023-06-14T03:20:56;15.80;90.50
52849;DHT22;38714;53.180;5.812;2023-06-14T03:23:24;15.80;90.50
52849;DHT22;38714;53.180;5.812;2023-06-14T03:25:50;15.80;90.50
52849;DHT22;38714;53.180;5.812;2023-06-14T03:28:17;15.80;90.70
52849;DHT22;38714;53.180;5.812;2023-06-14T03:30:43;15.70;90.80
52849;DHT22;38714;53.180;5.812;2023-06-14T03:33:08;15.70;90.70
52849;DHT22;38714;53.180;5.812;2023-06-14T03:35:34;15.70;90.80
52849;DHT22;38714;53.180;5.812;2023-06-14T03:38:00;15.70;90.80
52849;DHT22;38714;53.180;5.812;2023-06-14T03:40:26;15.70;90.80
52849;DHT22;38714;53.180;5.812;2023-06-14T03:42:54;15.70;91.20
52849;DHT22;38714;53.180;5.812;2023-06-14T03:45:20;15.70;91.10
52849;DHT22;38714;53.180;5.812;2023-06-14T03:47:46;15.70;91.10
52849;DHT22;38714;53.180;5.812;2023-06-14T03:50:11;15.70;91.00
52849;DHT22;38714;53.180;5.812;2023-06-14T03:52:37;15.60;91.20
52849;DHT22;38714;53.180;5.812;2023-06-14T03:55:04;15.60;91.30
52849;DHT22;38714;53.180;5.812;2023-06-14T03:57:30;15.60;91.30
52849;DHT22;38714;53.180;5.812;2023-06-14T03:59:56;15.60;91.30
52849;DHT22;38714;53.180;5.812;2023-06-14T04:02:22;15.60;91.30
52849;DHT22;38714;53.180;5.812;2023-06-14T04:04:48;15.60;91.50
52849;DHT22;38714;53.180;5.812;2023-06-14T04:07:15;15.60;91.50
52849;DHT22;38714;53.180;5.812;2023-06-14T04:09:41;15.60;91.70
52849;DHT22;38714;53.180;5.812;2023-06-14T04:12:07;15.60;91.50
52849;DHT22;38714;53.180;5.812;2023-06-14T04:14:34;15.60;91.60
52849;DHT22;38714;53.180;5.812;2023-06-14T04:17:00;15.60;91.70
52849;DHT22;38714;53.180;5.812;2023-06-14T04:19:26;15.60;91.70
52849;DHT22;38714;53.180;5.812;2023-06-14T04:21:52;15.60;91.80
52849;DHT22;38714;53.180;5.812;2023-06-14T04:24:17;15.60;91.80
52849;DHT22;38714;53.180;5.812;2023-06-14T04:26:44;15.60;91.80
52849;DHT22;38714;53.180;5.812;2023-06-14T04:29:14;15.60;92.00
52849;DHT22;38714;53.180;5.812;2023-06-14T04:31:43;15.60;91.80
52849;DHT22;38714;53.180;5.812;2023-06-14T04:34:10;15.70;92.10
52849;DHT22;38714;53.180;5.812;2023-06-14T04:36:42;15.70;91.90
52849;DHT22;38714;53.180;5.812;2023-06-14T04:39:15;15.70;92.10
52849;DHT22;38714;53.180;5.812;2023-06-14T04:41:43;15.70;92.10
52849;DHT22;38714;53.180;5.812;2023-06-14T04:44:08;15.70;92.10
52849;DHT22;38714;53.180;5.812;2023-06-14T04:46:35;15.70;92.10
52849;DHT22;38714;53.180;5.812;2023-06-14T04:49:14;15.70;92.10
52849;DHT22;38714;53.180;5.812;2023-06-14T04:51:43;15.70;92.20
52849;DHT22;38714;53.180;5.812;2023-06-14T04:54:10;15.70;92.30
52849;DHT22;38714;53.180;5.812;2023-06-14T04:56:39;15.70;92.20
52849;DHT22;38714;53.180;5.812;2023-06-14T04:59:05;15.70;92.30
52849;DHT22;38714;53.180;5.812;2023-06-14T05:01:31;15.80;92.20
52849;DHT22;38714;53.180;5.812;2023-06-14T05:03:59;15.80;92.60
52849;DHT22;38714;53.180;5.812;2023-06-14T05:06:25;15.80;92.40
52849;DHT22;38714;53.180;5.812;2023-06-14T05:08:54;15.80;92.40
52849;DHT22;38714;53.180;5.812;2023-06-14T05:11:20;15.80;92.40
52849;DHT22;38714;53.180;5.812;2023-06-14T05:13:45;15.90;92.50
52849;DHT22;38714;53.180;5.812;2023-06-14T05:16:15;15.90;92.50
52849;DHT22;38714;53.180;5.812;2023-06-14T05:18:42;15.90;92.60
52849;DHT22;38714;53.180;5.812;2023-06-14T05:21:08;15.90;92.50
52849;DHT22;38714;53.180;5.812;2023-06-14T05:23:34;16.00;92.50
52849;DHT22;38714;53.180;5.812;2023-06-14T05:25:59;16.00;92.50
52849;DHT22;38714;53.180;5.812;2023-06-14T05:28:28;16.10;92.60
52849;DHT22;38714;53.180;5.812;2023-06-14T05:30:53;16.10;92.60
52849;DHT22;38714;53.180;5.812;2023-06-14T05:33:19;16.10;92.60
52849;DHT22;38714;53.180;5.812;2023-06-14T05:35:44;16.20;92.60
52849;DHT22;38714;53.180;5.812;2023-06-14T05:38:10;16.20;92.70
52849;DHT22;38714;53.180;5.812;2023-06-14T05:40:36;16.20;92.60
52849;DHT22;38714;53.180;5.812;2023-06-14T05:43:02;16.20;92.70
52849;DHT22;38714;53.180;5.812;2023-06-14T05:45:27;16.30;92.80
52849;DHT22;38714;53.180;5.812;2023-06-14T05:47:53;16.30;92.80
52849;DHT22;38714;53.180;5.812;2023-06-14T05:50:20;16.40;92.80
52849;DHT22;38714;53.180;5.812;2023-06-14T05:52:46;16.40;92.60
52849;DHT22;38714;53.180;5.812;2023-06-14T05:55:11;16.50;92.70
52849;DHT22;38714;53.180;5.812;2023-06-14T05:57:38;16.50;92.60
52849;DHT22;38714;53.180;5.812;2023-06-14T06:00:04;16.60;92.70
52849;DHT22;38714;53.180;5.812;2023-06-14T06:02:41;16.60;92.80
52849;DHT22;38714;53.180;5.812;2023-06-14T06:05:09;16.70;92.70
52849;DHT22;38714;53.180;5.812;2023-06-14T06:07:34;16.70;92.70
52849;DHT22;38714;53.180;5.812;2023-06-14T06:10:00;16.70;92.70
52849;DHT22;38714;53.180;5.812;2023-06-14T06:12:26;16.80;92.80
52849;DHT22;38714;53.180;5.812;2023-06-14T06:14:51;16.90;92.70
52849;DHT22;38714;53.180;5.812;2023-06-14T06:17:17;16.90;92.70
52849;DHT22;38714;53.180;5.812;2023-06-14T06:19:42;17.00;92.70
52849;DHT22;38714;53.180;5.812;2023-06-14T06:22:08;17.00;92.70
52849;DHT22;38714;53.180;5.812;2023-06-14T06:24:33;17.10;92.60
52849;DHT22;38714;53.180;5.812;2023-06-14T06:26:59;17.10;92.80
52849;DHT22;38714;53.180;5.812;2023-06-14T06:29:25;17.20;92.70
52849;DHT22;38714;53.180;5.812;2023-06-14T06:31:51;17.20;92.50
52849;DHT22;38714;53.180;5.812;2023-06-14T06:34:17;17.30;92.40
52849;DHT22;38714;53.180;5.812;2023-06-14T06:36:42;17.30;92.30
52849;DHT22;38714;53.180;5.812;2023-06-14T06:39:08;17.40;92.30
52849;DHT22;38714;53.180;5.812;2023-06-14T06:41:39;17.40;92.30
52849;DHT22;38714;53.180;5.812;2023-06-14T06:44:08;17.50;92.30
52849;DHT22;38714;53.180;5.812;2023-06-14T06:46:36;17.60;92.30
52849;DHT22;38714;53.180;5.812;2023-06-14T06:49:05;17.60;92.10
52849;DHT22;38714;53.180;5.812;2023-06-14T06:51:31;17.70;92.10
52849;DHT22;38714;53.180;5.812;2023-06-14T06:53:58;17.70;92.10
52849;DHT22;38714;53.180;5.812;2023-06-14T06:56:23;17.70;91.90
52849;DHT22;38714;53.180;5.812;2023-06-14T06:58:50;17.80;91.90
52849;DHT22;38714;53.180;5.812;2023-06-14T07:01:16;17.80;91.90
52849;DHT22;38714;53.180;5.812;2023-06-14T07:03:42;17.90;92.20
52849;DHT22;38714;53.180;5.812;2023-06-14T07:06:07;18.00;91.70
52849;DHT22;38714;53.180;5.812;2023-06-14T07:08:33;18.00;91.70
52849;DHT22;38714;53.180;5.812;2023-06-14T07:10:59;18.10;91.70
52849;DHT22;38714;53.180;5.812;2023-06-14T07:13:25;18.00;91.60
52849;DHT22;38714;53.180;5.812;2023-06-14T07:15:53;18.20;91.60
52849;DHT22;38714;53.180;5.812;2023-06-14T07:18:19;18.20;91.60
52849;DHT22;38714;53.180;5.812;2023-06-14T07:20:45;18.30;91.60
52849;DHT22;38714;53.180;5.812;2023-06-14T07:23:12;18.30;91.60
52849;DHT22;38714;53.180;5.812;2023-06-14T07:25:38;18.40;91.50
52849;DHT22;38714;53.180;5.812;2023-06-14T07:28:03;18.50;91.40
52849;DHT22;38714;53.180;5.812;2023-06-14T07:30:29;18.50;91.30
52849;DHT22;38714;53.180;5.812;2023-06-14T07:32:55;18.50;91.30
52849;DHT22;38714;53.180;5.812;2023-06-14T07:35:21;18.60;91.20
52849;DHT22;38714;53.180;5.812;2023-06-14T07:37:47;18.60;91.20
52849;DHT22;38714;53.180;5.812;2023-06-14T07:40:13;18.60;91.10
52849;DHT22;38714;53.180;5.812;2023-06-14T07:42:39;18.70;91.10
52849;DHT22;38714;53.180;5.812;2023-06-14T07:45:05;18.70;91.00
52849;DHT22;38714;53.180;5.812;2023-06-14T07:47:32;18.70;91.10
52849;DHT22;38714;53.180;5.812;2023-06-14T07:49:57;18.80;91.10
52849;DHT22;38714;53.180;5.812;2023-06-14T07:52:23;18.90;91.10
52849;DHT22;38714;53.180;5.812;2023-06-14T07:54:49;18.90;91.10
52849;DHT22;38714;53.180;5.812;2023-06-14T07:57:14;18.90;91.00
52849;DHT22;38714;53.180;5.812;2023-06-14T07:59:40;19.00;90.90
52849;DHT22;38714;53.180;5.812;2023-06-14T08:02:06;19.00;90.90
52849;DHT22;38714;53.180;5.812;2023-06-14T08:04:32;19.10;90.80
52849;DHT22;38714;53.180;5.812;2023-06-14T08:07:01;19.10;90.70
52849;DHT22;38714;53.180;5.812;2023-06-14T08:09:26;19.20;90.70
52849;DHT22;38714;53.180;5.812;2023-06-14T08:11:54;19.20;90.50
52849;DHT22;38714;53.180;5.812;2023-06-14T08:14:20;19.30;90.50
52849;DHT22;38714;53.180;5.812;2023-06-14T08:16:45;19.40;90.50
52849;DHT22;38714;53.180;5.812;2023-06-14T08:19:11;19.40;90.50
52849;DHT22;38714;53.180;5.812;2023-06-14T08:21:37;19.40;90.40
52849;DHT22;38714;53.180;5.812;2023-06-14T08:24:03;19.50;90.30
52849;DHT22;38714;53.180;5.812;2023-06-14T08:26:29;19.50;90.10
52849;DHT22;38714;53.180;5.812;2023-06-14T08:28:55;19.50;90.10
52849;DHT22;38714;53.180;5.812;2023-06-14T08:31:22;19.60;90.00
52849;DHT22;38714;53.180;5.812;2023-06-14T08:33:47;19.70;90.00
52849;DHT22;38714;53.180;5.812;2023-06-14T08:36:13;19.70;89.80
52849;DHT22;38714;53.180;5.812;2023-06-14T08:38:39;19.80;89.80
52849;DHT22;38714;53.180;5.812;2023-06-14T08:41:06;19.80;89.60
52849;DHT22;38714;53.180;5.812;2023-06-14T08:43:33;19.90;89.50
52849;DHT22;38714;53.180;5.812;2023-06-14T08:46:00;19.90;89.70
52849;DHT22;38714;53.180;5.812;2023-06-14T08:48:28;19.90;89.60
52849;DHT22;38714;53.180;5.812;2023-06-14T08:50:55;20.00;89.40
52849;DHT22;38714;53.180;5.812;2023-06-14T08:53:30;20.00;89.00
52849;DHT22;38714;53.180;5.812;2023-06-14T08:55:58;20.00;89.00
52849;DHT22;38714;53.180;5.812;2023-06-14T08:58:30;20.10;88.90
52849;DHT22;38714;53.180;5.812;2023-06-14T09:00:57;20.10;89.00
52849;DHT22;38714;53.180;5.812;2023-06-14T09:03:24;20.10;88.80
52849;DHT22;38714;53.180;5.812;2023-06-14T09:05:57;20.20;88.90
52849;DHT22;38714;53.180;5.812;2023-06-14T09:08:27;20.20;88.80
52849;DHT22;38714;53.180;5.812;2023-06-14T09:10:56;20.20;88.70
52849;DHT22;38714;53.180;5.812;2023-06-14T09:13:22;20.30;88.80
52849;DHT22;38714;53.180;5.812;2023-06-14T09:15:47;20.40;88.70
52849;DHT22;38714;53.180;5.812;2023-06-14T09:18:13;20.40;88.60
52849;DHT22;38714;53.180;5.812;2023-06-14T09:20:40;20.40;88.30
52849;DHT22;38714;53.180;5.812;2023-06-14T09:23:06;20.40;88.20
52849;DHT22;38714;53.180;5.812;2023-06-14T09:25:36;20.50;88.30
52849;DHT22;38714;53.180;5.812;2023-06-14T09:28:07;20.50;88.20
52849;DHT22;38714;53.180;5.812;2023-06-14T09:30:33;20.60;88.20
52849;DHT22;38714;53.180;5.812;2023-06-14T09:32:59;20.60;86.90
52849;DHT22;38714;53.180;5.812;2023-06-14T09:35:25;20.60;88.20
52849;DHT22;38714;53.180;5.812;2023-06-14T09:37:50;20.60;87.30
52849;DHT22;38714;53.180;5.812;2023-06-14T09:40:20;20.70;87.30
52849;DHT22;38714;53.180;5.812;2023-06-14T09:42:47;20.70;87.20
52849;DHT22;38714;53.180;5.812;2023-06-14T09:45:13;20.70;87.50
52849;DHT22;38714;53.180;5.812;2023-06-14T09:47:39;20.70;87.80
52849;DHT22;38714;53.180;5.812;2023-06-14T09:50:06;20.80;87.70
52849;DHT22;38714;53.180;5.812;2023-06-14T09:52:32;20.80;87.50
52849;DHT22;38714;53.180;5.812;2023-06-14T09:54:59;20.90;87.20
52849;DHT22;38714;53.180;5.812;2023-06-14T09:57:25;20.90;86.50
52849;DHT22;38714;53.180;5.812;2023-06-14T09:59:57;20.90;86.40
52849;DHT22;38714;53.180;5.812;2023-06-14T10:02:28;20.90;86.00
52849;DHT22;38714;53.180;5.812;2023-06-14T10:07:32;21.00;84.40
52849;DHT22;38714;53.180;5.812;2023-06-14T10:09:58;21.00;86.00
52849;DHT22;38714;53.180;5.812;2023-06-14T10:12:24;21.00;85.90
52849;DHT22;38714;53.180;5.812;2023-06-14T10:14:51;21.10;85.60
52849;DHT22;38714;53.180;5.812;2023-06-14T10:18:01;21.20;85.30
52849;DHT22;38714;53.180;5.812;2023-06-14T10:20:41;21.30;82.60
52849;DHT22;38714;53.180;5.812;2023-06-14T10:23:17;21.20;82.80
52849;DHT22;38714;53.180;5.812;2023-06-14T10:25:44;21.30;84.60
52849;DHT22;38714;53.180;5.812;2023-06-14T10:28:20;21.40;85.20
52849;DHT22;38714;53.180;5.812;2023-06-14T10:31:11;21.40;84.70
52849;DHT22;38714;53.180;5.812;2023-06-14T10:33:56;21.40;82.70
52849;DHT22;38714;53.180;5.812;2023-06-14T10:36:28;21.50;81.20
52849;DHT22;38714;53.180;5.812;2023-06-14T10:39:16;21.50;82.00
52849;DHT22;38714;53.180;5.812;2023-06-14T10:41:53;21.60;81.20
52849;DHT22;38714;53.180;5.812;2023-06-14T10:46:55;21.60;84.40
52849;DHT22;38714;53.180;5.812;2023-06-14T10:49:43;21.60;83.80
52849;DHT22;38714;53.180;5.812;2023-06-14T10:52:11;21.60;81.10
52849;DHT22;38714;53.180;5.812;2023-06-14T10:57:26;21.70;82.40
52849;DHT22;38714;53.180;5.812;2023-06-14T10:59:52;21.70;84.40
52849;DHT22;38714;53.180;5.812;2023-06-14T11:05:30;21.70;81.30
52849;DHT22;38714;53.180;5.812;2023-06-14T11:08:21;21.80;84.30
52849;DHT22;38714;53.180;5.812;2023-06-14T11:10:51;21.80;80.00
52849;DHT22;38714;53.180;5.812;2023-06-14T11:13:19;21.90;84.30
52849;DHT22;38714;53.180;5.812;2023-06-14T11:15:47;21.90;84.30
52849;DHT22;38714;53.180;5.812;2023-06-14T11:18:14;21.90;85.00
52849;DHT22;38714;53.180;5.812;2023-06-14T11:20:40;21.90;84.20
52849;DHT22;38714;53.180;5.812;2023-06-14T11:23:06;21.90;84.60
52849;DHT22;38714;53.180;5.812;2023-06-14T11:25:31;21.90;84.20
52849;DHT22;38714;53.180;5.812;2023-06-14T11:27:57;21.90;84.30
52849;DHT22;38714;53.180;5.812;2023-06-14T11:30:24;22.00;84.40
52849;DHT22;38714;53.180;5.812;2023-06-14T11:32:52;22.00;84.70
52849;DHT22;38714;53.180;5.812;2023-06-14T11:35:19;22.00;84.40
52849;DHT22;38714;53.180;5.812;2023-06-14T11:37:48;22.10;84.30
52849;DHT22;38714;53.180;5.812;2023-06-14T11:40:14;22.10;84.00
52849;DHT22;38714;53.180;5.812;2023-06-14T11:42:41;22.10;83.50
52849;DHT22;38714;53.180;5.812;2023-06-14T11:45:11;22.10;83.70
52849;DHT22;38714;53.180;5.812;2023-06-14T11:47:38;22.10;82.80
52849;DHT22;38714;53.180;5.812;2023-06-14T11:50:06;22.10;83.70
52849;DHT22;38714;53.180;5.812;2023-06-14T11:52:32;22.20;83.80
52849;DHT22;38714;53.180;5.812;2023-06-14T11:54:58;22.10;83.50
52849;DHT22;38714;53.180;5.812;2023-06-14T11:57:25;22.20;83.70
52849;DHT22;38714;53.180;5.812;2023-06-14T11:59:51;22.20;83.90
52849;DHT22;38714;53.180;5.812;2023-06-14T12:02:19;22.30;83.90
52849;DHT22;38714;53.180;5.812;2023-06-14T12:04:48;22.30;83.30
52849;DHT22;38714;53.180;5.812;2023-06-14T12:07:17;22.30;82.90
52849;DHT22;38714;53.180;5.812;2023-06-14T12:12:23;22.30;81.50
52849;DHT22;38714;53.180;5.812;2023-06-14T12:14:51;22.40;82.90
52849;DHT22;38714;53.180;5.812;2023-06-14T12:17:18;22.40;83.30
52849;DHT22;38714;53.180;5.812;2023-06-14T12:19:48;22.40;83.10
52849;DHT22;38714;53.180;5.812;2023-06-14T12:22:14;22.50;83.10
52849;DHT22;38714;53.180;5.812;2023-06-14T12:24:43;22.50;83.00
52849;DHT22;38714;53.180;5.812;2023-06-14T12:27:09;22.50;82.50
52849;DHT22;38714;53.180;5.812;2023-06-14T12:29:37;22.50;82.70
52849;DHT22;38714;53.180;5.812;2023-06-14T12:32:03;22.60;82.90
52849;DHT22;38714;53.180;5.812;2023-06-14T12:34:28;22.70;82.80
52849;DHT22;38714;53.180;5.812;2023-06-14T12:36:54;22.70;82.60
52849;DHT22;38714;53.180;5.812;2023-06-14T12:39:20;22.70;82.30
52849;DHT22;38714;53.180;5.812;2023-06-14T12:41:46;22.70;81.90
52849;DHT22;38714;53.180;5.812;2023-06-14T12:44:12;22.70;81.60
52849;DHT22;38714;53.180;5.812;2023-06-14T12:46:39;22.70;82.40
52849;DHT22;38714;53.180;5.812;2023-06-14T12:49:05;22.70;81.60
52849;DHT22;38714;53.180;5.812;2023-06-14T12:51:32;22.80;81.50
52849;DHT22;38714;53.180;5.812;2023-06-14T12:53:57;22.80;81.80
52849;DHT22;38714;53.180;5.812;2023-06-14T12:56:23;22.80;82.00
52849;DHT22;38714;53.180;5.812;2023-06-14T12:58:48;22.90;82.00
52849;DHT22;38714;53.180;5.812;2023-06-14T13:01:14;23.00;81.50
52849;DHT22;38714;53.180;5.812;2023-06-14T13:03:39;23.00;81.40
52849;DHT22;38714;53.180;5.812;2023-06-14T13:06:05;23.00;81.00
52849;DHT22;38714;53.180;5.812;2023-06-14T13:08:31;23.10;81.10
52849;DHT22;38714;53.180;5.812;2023-06-14T13:10:57;23.10;81.30
52849;DHT22;38714;53.180;5.812;2023-06-14T13:13:23;23.10;81.20
52849;DHT22;38714;53.180;5.812;2023-06-14T13:15:49;23.10;81.30
52849;DHT22;38714;53.180;5.812;2023-06-14T13:18:16;23.10;82.60
52849;DHT22;38714;53.180;5.812;2023-06-14T13:20:42;23.10;83.60
52849;DHT22;38714;53.180;5.812;2023-06-14T13:23:08;23.10;84.20
52849;DHT22;38714;53.180;5.812;2023-06-14T13:25:35;23.00;84.10
52849;DHT22;38714;53.180;5.812;2023-06-14T13:28:01;22.90;84.40
52849;DHT22;38714;53.180;5.812;2023-06-14T13:30:26;22.90;84.80
52849;DHT22;38714;53.180;5.812;2023-06-14T13:32:52;22.90;85.30
52849;DHT22;38714;53.180;5.812;2023-06-14T13:35:18;22.90;85.50
52849;DHT22;38714;53.180;5.812;2023-06-14T13:37:44;22.90;85.50
52849;DHT22;38714;53.180;5.812;2023-06-14T13:40:10;22.90;85.70
52849;DHT22;38714;53.180;5.812;2023-06-14T13:42:36;22.90;85.90
52849;DHT22;38714;53.180;5.812;2023-06-14T13:45:03;22.90;86.30
52849;DHT22;38714;53.180;5.812;2023-06-14T13:47:30;22.90;86.40
52849;DHT22;38714;53.180;5.812;2023-06-14T13:49:56;22.90;86.30
52849;DHT22;38714;53.180;5.812;2023-06-14T13:52:22;23.00;86.60
52849;DHT22;38714;53.180;5.812;2023-06-14T13:54:48;22.90;86.60
52849;DHT22;38714;53.180;5.812;2023-06-14T13:57:13;22.90;86.70
52849;DHT22;38714;53.180;5.812;2023-06-14T13:59:40;22.90;87.10
52849;DHT22;38714;53.180;5.812;2023-06-14T14:02:06;22.80;87.30
52849;DHT22;38714;53.180;5.812;2023-06-14T14:04:33;22.80;87.50
52849;DHT22;38714;53.180;5.812;2023-06-14T14:07:00;22.80;87.60
52849;DHT22;38714;53.180;5.812;2023-06-14T14:09:26;22.90;87.80
52849;DHT22;38714;53.180;5.812;2023-06-14T14:11:52;22.90;87.80
52849;DHT22;38714;53.180;5.812;2023-06-14T14:14:17;23.00;88.00
52849;DHT22;38714;53.180;5.812;2023-06-14T14:16:43;23.10;87.80
52849;DHT22;38714;53.180;5.812;2023-06-14T14:19:08;23.10;87.70
52849;DHT22;38714;53.180;5.812;2023-06-14T14:21:34;23.10;87.70
52849;DHT22;38714;53.180;5.812;2023-06-14T14:24:01;23.00;87.70
52849;DHT22;38714;53.180;5.812;2023-06-14T14:26:26;22.90;87.90
52849;DHT22;38714;53.180;5.812;2023-06-14T14:28:52;22.80;88.20
52849;DHT22;38714;53.180;5.812;2023-06-14T14:31:18;22.80;88.40
52849;DHT22;38714;53.180;5.812;2023-06-14T14:33:44;22.80;88.50
52849;DHT22;38714;53.180;5.812;2023-06-14T14:36:09;22.90;88.70
52849;DHT22;38714;53.180;5.812;2023-06-14T14:38:35;22.90;88.60
52849;DHT22;38714;53.180;5.812;2023-06-14T14:41:01;23.00;88.50
52849;DHT22;38714;53.180;5.812;2023-06-14T14:43:26;23.00;88.50
52849;DHT22;38714;53.180;5.812;2023-06-14T14:45:52;23.00;88.30
52849;DHT22;38714;53.180;5.812;2023-06-14T14:48:18;23.00;88.40
52849;DHT22;38714;53.180;5.812;2023-06-14T14:50:43;23.00;88.50
52849;DHT22;38714;53.180;5.812;2023-06-14T14:53:09;23.10;88.50
52849;DHT22;38714;53.180;5.812;2023-06-14T14:55:35;23.10;88.50
52849;DHT22;38714;53.180;5.812;2023-06-14T14:58:02;23.20;88.60
52849;DHT22;38714;53.180;5.812;2023-06-14T15:00:28;23.20;88.20
52849;DHT22;38714;53.180;5.812;2023-06-14T15:02:54;23.20;88.10
52849;DHT22;38714;53.180;5.812;2023-06-14T15:05:20;23.10;88.40
52849;DHT22;38714;53.180;5.812;2023-06-14T15:07:46;23.10;88.40
52849;DHT22;38714;53.180;5.812;2023-06-14T15:10:12;23.10;88.50
52849;DHT22;38714;53.180;5.812;2023-06-14T15:12:37;23.10;88.20
52849;DHT22;38714;53.180;5.812;2023-06-14T15:15:03;23.10;88.40
52849;DHT22;38714;53.180;5.812;2023-06-14T15:17:29;23.20;88.30
52849;DHT22;38714;53.180;5.812;2023-06-14T15:19:55;23.30;88.10
52849;DHT22;38714;53.180;5.812;2023-06-14T15:22:21;23.30;87.90
52849;DHT22;38714;53.180;5.812;2023-06-14T15:24:46;23.30;88.00
52849;DHT22;38714;53.180;5.812;2023-06-14T15:27:12;23.30;87.80
52849;DHT22;38714;53.180;5.812;2023-06-14T15:29:41;23.30;87.50
52849;DHT22;38714;53.180;5.812;2023-06-14T15:32:08;23.30;87.70
52849;DHT22;38714;53.180;5.812;2023-06-14T15:34:34;23.40;87.60
52849;DHT22;38714;53.180;5.812;2023-06-14T15:36:59;23.40;87.40
52849;DHT22;38714;53.180;5.812;2023-06-14T15:39:26;23.40;87.60
52849;DHT22;38714;53.180;5.812;2023-06-14T15:41:52;23.50;87.50
52849;DHT22;38714;53.180;5.812;2023-06-14T15:44:18;23.50;87.60
52849;DHT22;38714;53.180;5.812;2023-06-14T15:46:44;23.60;87.50
52849;DHT22;38714;53.180;5.812;2023-06-14T15:49:13;23.80;87.20